Sample Charts Sidebar
> Live data! Your data is on the web site for you to access within minutes
 
> Detailed data is easily downloaded as data file, which can be opened with Excel
 
> Charts can be customised if necessary
  Chart 1
 

(A maximum of 50 rows are displayed here. Use "Export Data" to see all rows in the date range.)
Date Collected Temperature
(Celcius)
Wind-chill
(Celcius)
Wind Speed
(km/hr)
Gust
(km/hr)
Wind Direction
(degrees)
2019-01-17 18:00 15.3 13.8 4 14 359
2019-01-17 17:00 15.2 12.9 6 18 343
2019-01-17 16:00 15.5 13.5 5 16 336
2019-01-17 15:00 16.3 12.9 7 25 345
2019-01-17 14:00 16.8 13.9 7 20 21
2019-01-17 13:00 16.3 12.9 7 19 3
2019-01-17 12:00 15.8 13.2 6 16 19
2019-01-17 11:00 15.2 12.1 7 15 16
2019-01-17 10:00 12.1 9.1 5 16 31
2019-01-17 09:00 8.4 6.5 4 8 61
2019-01-17 08:00 6.5 4.1 5 9 57
2019-01-17 07:00 5.5 3.3 4 8 44
2019-01-17 06:00 4.4 1.4 5 10 56
2019-01-17 05:00 4.0 1.2 5 11 48
2019-01-17 04:00 4.0 1.4 5 10 56
2019-01-17 03:00 3.5 1.1 5 11 56
2019-01-17 02:00 4.0 1.8 4 9 50
2019-01-17 01:00 4.2 1.8 5 10 51
2019-01-17 00:00 4.6 3.1 4 8 49
2019-01-16 23:00 5.0 4.3 3 6 52
2019-01-16 22:00 5.2 5.1 2 6 43
2019-01-16 21:00 5.7 5.8 2 5 36
2019-01-16 20:00 6.7 6.7 1 3 18
2019-01-16 19:00 8.1 8.4 0 1 293
2019-01-16 18:00 10.6 10.7 1 3 207
2019-01-16 17:00 12.5 12.2 3 7 210
2019-01-16 16:00 14.2 14.2 0 0 217
2019-01-16 15:00 14.7 13.9 4 10 201
2019-01-16 14:00 15.3 13.9 4 11 201
2019-01-16 13:00 15.1 14.0 4 10 195
2019-01-16 12:00 14.7 14.0 3 11 196
2019-01-16 11:00 14.9 13.4 4 10 227
2019-01-16 10:00 12.4 12.2 2 5 210
2019-01-16 09:00 8.6 8.3 1 3 40
2019-01-16 08:00 6.4 6.2 2 5 39
2019-01-16 07:00 5.2 5.1 2 5 42
2019-01-16 06:00 4.7 4.8 1 4 43
2019-01-16 05:00 5.3 5.3 1 3 48
2019-01-16 04:00 4.8 4.6 2 3 43
2019-01-16 03:00 4.6 4.7 1 3 63
2019-01-16 02:00 5.0 5.0 2 5 35
2019-01-16 01:00 5.3 5.3 2 5 40
2019-01-16 00:00 5.6 5.6 1 2 37
2019-01-15 23:00 6.1 6.2 1 3 59
2019-01-15 22:00 6.3 6.3 1 3 41
2019-01-15 21:00 6.7 6.7 0 1 319
2019-01-15 20:00 7.8 7.9 1 3 47
2019-01-15 19:00 9.5 9.7 0 1 57
2019-01-15 18:00 11.4 11.7 1 3 236
2019-01-15 17:00 13.2 12.9 3 8 213